Mateus Leme, Brazil
Current Conditions -  °F | °C
As of 7:00 AM on Monday 22 Dec 2014 (Local Time) from SBBH Reporting Station
Drizzle Drizzle  
Wind Chill: 70°   Ceiling: 900
Heat Index: 70°   Visibility: 2.5mi
Dew Point: 66°   Wind: 2mph
Humidity: 88%   Direction: 20°NNE
Pressure: NA   Gusts: NA
Location:  19.99°S, 44.43°W
Report Text: SBBH 220900Z 02002KT 4000 -DZ BR BKN009 SCT015 OVC080 21/19 Q1018
Loading
Personal Weather Stations






























Interactive Weather Map New forecast layout! Learn more

10-Day Weather Forecast

Advertisements
Track Severe Weather on mobile